METAR AND TAF INFORMATION
METAR FOR KBWI
KBWI 260354Z 00000KT 10SM FEW250 02/M05 A3009 RMK AO2 SLP192 T00171050 $
KBWI 260254Z 16003KT 10SM FEW250 02/M05 A3010 RMK AO2 SLP194 T00221050 52002 $
KBWI 260154Z 16003KT 10SM FEW250 02/M04 A3010 RMK AO2 SLP193 T00221044 $
KBWI 260258Z 2603/2706 16004KT P6SM BKN100 WS020/23035KT
FM261100 18006KT P6SM BKN100
FM261400 24005KT P6SM SCT200
FM261900 19006KT P6SM FEW200
FM262300 15005KT P6SM SCT150

 AIRPORT MAP

 RUNWAY INFORMATION
Runway 04 Runway length 6000 ft Runway width 150 ft
Runway elevation 146 ft Runway displaced threshold 0 ft Runway heading 33
Runway 22 Runway length 6000 ft Runway width 150 ft
Runway elevation 138 ft Runway displaced threshold 0 ft Runway heading 213
Runway 10 Runway length 10502 ft Runway width 200 ft
Runway elevation 141 ft Runway displaced threshold 550 ft Runway heading 94
Runway 28 Runway length 10502 ft Runway width 200 ft
Runway elevation 129 ft Runway displaced threshold 500 ft Runway heading 274
Runway 15L Runway length 5000 ft Runway width 100 ft
Runway elevation 142 ft Runway displaced threshold 0 ft Runway heading 144
Runway 33R Runway length 5000 ft Runway width 100 ft
Runway elevation 114 ft Runway displaced threshold 0 ft Runway heading 324
Runway 15R Runway length 9501 ft Runway width 150 ft
Runway elevation 139 ft Runway displaced threshold 0 ft Runway heading 144
Runway 33L Runway length 9501 ft Runway width 150 ft
Runway elevation 129 ft Runway displaced threshold 0 ft Runway heading 324

 AIRPORT FREQUENCIES
Type APP Name POTOMAC AP Frequency 119 MHZ
Type ATIS Name ATIS Frequency 115.1 MHZ
Type CLD Name CLNC DEL Frequency 118.05 MHZ
Type DEP Name POTOMAC DE Frequency 126.75 MHZ
Type GND Name GND Frequency 121.9 MHZ
Type RDO Name LEESBURG R Frequency 122.2 MHZ
Type TWR Name TWR Frequency 119.4 MHZ
Type UNIC Name UNICOM Frequency 122.95 MHZ

 AIRPORT NEAR NAVIGATION AIDS
Type VORTAC Name Baltimore Frequency 115100 KHZ
Type NDB Name Ellicott Frequency 371 KHZ

-